Hovedside
METAR-TAF:

METAR-TAF

Lufthavner :

Stord lufthavn. Sørstokken

Stord, Norge

breddegrad: 59-48N, lengdegrad: 005-21E, høyde over havet: 49 m

Gjeldene værobservasjon

Denne rapporten ble laget for 4 timer og 55 minutter siden, klokken 14:20 UTC
Vind 12 kt fra Sør med vindkast opp mot 22 kt, skiftende mellom Sørøst og Vest-sørvest
Temperatur 18°C
Luftfuktighet 59%
Trykk 1024 hPa
Sikt 10 km eller mer
ingen skyer under 1500 m og ingen bygeskyer

METAR: ENSO 201420Z 19012G22KT 140V240 CAVOK 18/10 Q1024

Tid: 21:15 (19:15 UTC)


TAF: fraværende

Værobservasjoner og værvarsel for over 4000 flyplasser (METAR- og TAF-rapporter).

Tilgjengelige stasjoner er representert av de røde og gule prikkene på kartet.

Hold musepekeren over prikken for å se navnet på stasjonen.

Klikk så for å se værobservasjoner og -varsler.

For å forandre kartet kan du klikke på den grønne knappen med svart kryss for å zoome inn, på den grønne knappen med strek for å zoome ut, eller på de grønne pilene for å se tilstøtende kart.


METAR-TAF: